sensor_id;sensor_type;location;lat;lon;timestamp;P1;durP1;ratioP1;P2;durP2;ratioP2
29812;SDS011;16707;48.106;11.548;2022-11-20T00:01:40;2.67;;;1.95;;
29812;SDS011;16707;48.106;11.548;2022-11-20T00:04:11;2.70;;;1.98;;
29812;SDS011;16707;48.106;11.548;2022-11-20T00:06:43;2.65;;;1.80;;
29812;SDS011;16707;48.106;11.548;2022-11-20T00:09:14;3.45;;;1.88;;
29812;SDS011;16707;48.106;11.548;2022-11-20T00:11:42;3.03;;;2.00;;
29812;SDS011;16707;48.106;11.548;2022-11-20T00:14:09;2.05;;;1.60;;
29812;SDS011;16707;48.106;11.548;2022-11-20T00:16:36;3.30;;;1.90;;
29812;SDS011;16707;48.106;11.548;2022-11-20T00:19:04;2.35;;;2.00;;
29812;SDS011;16707;48.106;11.548;2022-11-20T00:21:31;2.35;;;2.08;;
29812;SDS011;16707;48.106;11.548;2022-11-20T00:24:09;2.50;;;1.85;;
29812;SDS011;16707;48.106;11.548;2022-11-20T00:26:39;2.22;;;1.90;;
29812;SDS011;16707;48.106;11.548;2022-11-20T00:29:08;2.42;;;1.83;;
29812;SDS011;16707;48.106;11.548;2022-11-20T00:31:35;3.10;;;2.15;;
29812;SDS011;16707;48.106;11.548;2022-11-20T00:34:05;4.25;;;2.22;;
29812;SDS011;16707;48.106;11.548;2022-11-20T00:36:41;2.75;;;2.17;;
29812;SDS011;16707;48.106;11.548;2022-11-20T00:39:13;2.67;;;1.83;;
29812;SDS011;16707;48.106;11.548;2022-11-20T00:41:45;3.22;;;2.10;;
29812;SDS011;16707;48.106;11.548;2022-11-20T00:44:18;3.40;;;2.40;;
29812;SDS011;16707;48.106;11.548;2022-11-20T00:46:48;5.47;;;2.35;;
29812;SDS011;16707;48.106;11.548;2022-11-20T00:49:18;3.20;;;2.47;;
29812;SDS011;16707;48.106;11.548;2022-11-20T00:51:53;3.22;;;2.10;;
29812;SDS011;16707;48.106;11.548;2022-11-20T00:54:30;3.75;;;2.42;;
29812;SDS011;16707;48.106;11.548;2022-11-20T00:57:01;4.57;;;2.30;;
29812;SDS011;16707;48.106;11.548;2022-11-20T00:59:34;3.22;;;2.38;;
29812;SDS011;16707;48.106;11.548;2022-11-20T01:02:03;2.88;;;2.17;;
29812;SDS011;16707;48.106;11.548;2022-11-20T01:04:31;4.53;;;2.45;;
29812;SDS011;16707;48.106;11.548;2022-11-20T01:07:03;3.33;;;2.47;;
29812;SDS011;16707;48.106;11.548;2022-11-20T01:09:36;2.28;;;1.92;;
29812;SDS011;16707;48.106;11.548;2022-11-20T01:12:11;2.85;;;2.30;;
29812;SDS011;16707;48.106;11.548;2022-11-20T01:14:38;3.63;;;2.20;;
29812;SDS011;16707;48.106;11.548;2022-11-20T01:17:11;3.40;;;1.88;;
29812;SDS011;16707;48.106;11.548;2022-11-20T01:19:43;2.40;;;1.95;;
29812;SDS011;16707;48.106;11.548;2022-11-20T01:22:11;2.30;;;2.03;;
29812;SDS011;16707;48.106;11.548;2022-11-20T01:24:39;4.40;;;2.25;;
29812;SDS011;16707;48.106;11.548;2022-11-20T01:27:06;3.50;;;2.47;;
29812;SDS011;16707;48.106;11.548;2022-11-20T01:29:35;3.88;;;2.20;;
29812;SDS011;16707;48.106;11.548;2022-11-20T01:32:02;3.58;;;2.05;;
29812;SDS011;16707;48.106;11.548;2022-11-20T01:34:29;3.42;;;2.30;;
29812;SDS011;16707;48.106;11.548;2022-11-20T01:36:56;2.33;;;1.90;;
29812;SDS011;16707;48.106;11.548;2022-11-20T01:39:32;2.15;;;1.83;;
29812;SDS011;16707;48.106;11.548;2022-11-20T01:41:59;2.88;;;2.17;;
29812;SDS011;16707;48.106;11.548;2022-11-20T01:44:52;2.30;;;1.98;;
29812;SDS011;16707;48.106;11.548;2022-11-20T01:47:25;2.28;;;1.90;;
29812;SDS011;16707;48.106;11.548;2022-11-20T01:50:06;2.72;;;2.10;;
29812;SDS011;16707;48.106;11.548;2022-11-20T01:52:41;3.15;;;2.20;;
29812;SDS011;16707;48.106;11.548;2022-11-20T01:55:13;3.30;;;2.30;;
29812;SDS011;16707;48.106;11.548;2022-11-20T01:57:49;2.55;;;1.92;;
29812;SDS011;16707;48.106;11.548;2022-11-20T02:00:19;2.58;;;2.33;;
29812;SDS011;16707;48.106;11.548;2022-11-20T02:02:50;2.80;;;1.88;;
29812;SDS011;16707;48.106;11.548;2022-11-20T02:05:27;3.28;;;1.90;;
29812;SDS011;16707;48.106;11.548;2022-11-20T02:07:58;2.88;;;2.28;;
29812;SDS011;16707;48.106;11.548;2022-11-20T02:10:31;2.92;;;2.20;;
29812;SDS011;16707;48.106;11.548;2022-11-20T02:13:04;2.85;;;2.00;;
29812;SDS011;16707;48.106;11.548;2022-11-20T02:16:07;2.53;;;1.80;;
29812;SDS011;16707;48.106;11.548;2022-11-20T02:18:46;3.40;;;2.38;;
29812;SDS011;16707;48.106;11.548;2022-11-20T02:21:25;2.17;;;1.88;;
29812;SDS011;16707;48.106;11.548;2022-11-20T02:24:01;3.50;;;2.00;;
29812;SDS011;16707;48.106;11.548;2022-11-20T02:26:35;2.83;;;1.85;;
29812;SDS011;16707;48.106;11.548;2022-11-20T02:29:13;3.17;;;2.20;;
29812;SDS011;16707;48.106;11.548;2022-11-20T02:31:50;2.80;;;2.17;;
29812;SDS011;16707;48.106;11.548;2022-11-20T02:34:36;4.30;;;2.80;;
29812;SDS011;16707;48.106;11.548;2022-11-20T02:37:10;3.08;;;1.95;;
29812;SDS011;16707;48.106;11.548;2022-11-20T02:39:39;3.67;;;2.15;;
29812;SDS011;16707;48.106;11.548;2022-11-20T02:42:10;3.35;;;2.45;;
29812;SDS011;16707;48.106;11.548;2022-11-20T02:44:49;2.42;;;2.13;;
29812;SDS011;16707;48.106;11.548;2022-11-20T02:47:33;2.72;;;2.40;;
29812;SDS011;16707;48.106;11.548;2022-11-20T02:50:04;3.17;;;2.22;;
29812;SDS011;16707;48.106;11.548;2022-11-20T02:55:03;3.03;;;2.35;;
29812;SDS011;16707;48.106;11.548;2022-11-20T02:57:39;4.10;;;2.40;;
29812;SDS011;16707;48.106;11.548;2022-11-20T03:00:08;3.00;;;2.25;;
29812;SDS011;16707;48.106;11.548;2022-11-20T03:02:41;3.20;;;2.13;;
29812;SDS011;16707;48.106;11.548;2022-11-20T03:05:16;4.22;;;2.97;;
29812;SDS011;16707;48.106;11.548;2022-11-20T03:07:45;3.13;;;2.23;;
29812;SDS011;16707;48.106;11.548;2022-11-20T03:10:16;3.45;;;2.30;;
29812;SDS011;16707;48.106;11.548;2022-11-20T03:12:55;5.72;;;2.70;;
29812;SDS011;16707;48.106;11.548;2022-11-20T03:15:29;2.72;;;2.47;;
29812;SDS011;16707;48.106;11.548;2022-11-20T03:17:57;3.50;;;2.20;;
29812;SDS011;16707;48.106;11.548;2022-11-20T03:20:24;3.50;;;2.47;;
29812;SDS011;16707;48.106;11.548;2022-11-20T03:22:53;3.83;;;2.72;;
29812;SDS011;16707;48.106;11.548;2022-11-20T03:25:27;3.95;;;2.28;;
29812;SDS011;16707;48.106;11.548;2022-11-20T03:28:02;3.85;;;2.65;;
29812;SDS011;16707;48.106;11.548;2022-11-20T03:30:35;3.05;;;2.30;;
29812;SDS011;16707;48.106;11.548;2022-11-20T03:33:06;3.30;;;1.98;;
29812;SDS011;16707;48.106;11.548;2022-11-20T03:35:43;3.45;;;2.47;;
29812;SDS011;16707;48.106;11.548;2022-11-20T03:38:10;4.32;;;2.88;;
29812;SDS011;16707;48.106;11.548;2022-11-20T03:40:51;3.63;;;2.70;;
29812;SDS011;16707;48.106;11.548;2022-11-20T03:43:23;3.88;;;2.72;;
29812;SDS011;16707;48.106;11.548;2022-11-20T03:46:02;4.03;;;2.50;;
29812;SDS011;16707;48.106;11.548;2022-11-20T03:48:30;4.57;;;3.05;;
29812;SDS011;16707;48.106;11.548;2022-11-20T03:51:12;3.92;;;2.90;;
29812;SDS011;16707;48.106;11.548;2022-11-20T03:56:16;3.65;;;2.20;;
29812;SDS011;16707;48.106;11.548;2022-11-20T03:58:44;4.47;;;2.45;;
29812;SDS011;16707;48.106;11.548;2022-11-20T04:01:12;3.55;;;2.95;;
29812;SDS011;16707;48.106;11.548;2022-11-20T04:03:46;3.00;;;2.22;;
29812;SDS011;16707;48.106;11.548;2022-11-20T04:06:18;2.80;;;2.20;;
29812;SDS011;16707;48.106;11.548;2022-11-20T04:09:02;3.08;;;2.53;;
29812;SDS011;16707;48.106;11.548;2022-11-20T04:11:39;3.50;;;2.60;;
29812;SDS011;16707;48.106;11.548;2022-11-20T04:14:11;3.97;;;2.83;;
29812;SDS011;16707;48.106;11.548;2022-11-20T04:16:40;3.72;;;2.50;;
29812;SDS011;16707;48.106;11.548;2022-11-20T04:19:12;2.90;;;2.10;;
29812;SDS011;16707;48.106;11.548;2022-11-20T04:21:44;2.90;;;2.38;;
29812;SDS011;16707;48.106;11.548;2022-11-20T04:24:13;3.83;;;2.38;;
29812;SDS011;16707;48.106;11.548;2022-11-20T04:26:42;3.90;;;2.80;;
29812;SDS011;16707;48.106;11.548;2022-11-20T04:29:10;3.80;;;2.20;;
29812;SDS011;16707;48.106;11.548;2022-11-20T04:31:38;4.70;;;2.78;;
29812;SDS011;16707;48.106;11.548;2022-11-20T04:34:10;2.97;;;2.28;;
29812;SDS011;16707;48.106;11.548;2022-11-20T04:36:38;3.72;;;2.80;;
29812;SDS011;16707;48.106;11.548;2022-11-20T04:39:12;3.00;;;2.40;;
29812;SDS011;16707;48.106;11.548;2022-11-20T04:41:44;3.55;;;2.25;;
29812;SDS011;16707;48.106;11.548;2022-11-20T04:44:14;4.10;;;2.65;;
29812;SDS011;16707;48.106;11.548;2022-11-20T04:46:45;5.75;;;2.53;;
29812;SDS011;16707;48.106;11.548;2022-11-20T04:49:17;3.20;;;2.35;;
29812;SDS011;16707;48.106;11.548;2022-11-20T04:51:48;3.40;;;2.53;;
29812;SDS011;16707;48.106;11.548;2022-11-20T04:56:54;4.40;;;2.92;;
29812;SDS011;16707;48.106;11.548;2022-11-20T04:59:24;4.90;;;2.90;;
29812;SDS011;16707;48.106;11.548;2022-11-20T05:01:53;4.07;;;2.70;;
29812;SDS011;16707;48.106;11.548;2022-11-20T05:04:26;4.32;;;2.60;;
29812;SDS011;16707;48.106;11.548;2022-11-20T05:06:53;4.10;;;2.72;;
29812;SDS011;16707;48.106;11.548;2022-11-20T05:09:31;4.63;;;2.38;;
29812;SDS011;16707;48.106;11.548;2022-11-20T05:12:08;3.53;;;2.67;;
29812;SDS011;16707;48.106;11.548;2022-11-20T05:14:36;4.07;;;2.55;;
29812;SDS011;16707;48.106;11.548;2022-11-20T05:17:03;3.38;;;2.83;;
29812;SDS011;16707;48.106;11.548;2022-11-20T05:19:32;3.65;;;2.78;;
29812;SDS011;16707;48.106;11.548;2022-11-20T05:22:02;3.25;;;2.42;;
29812;SDS011;16707;48.106;11.548;2022-11-20T05:24:31;3.45;;;2.95;;
29812;SDS011;16707;48.106;11.548;2022-11-20T05:26:58;4.85;;;3.03;;
29812;SDS011;16707;48.106;11.548;2022-11-20T05:29:27;4.47;;;2.78;;
29812;SDS011;16707;48.106;11.548;2022-11-20T05:31:57;4.10;;;2.75;;
29812;SDS011;16707;48.106;11.548;2022-11-20T05:34:27;3.42;;;2.70;;
29812;SDS011;16707;48.106;11.548;2022-11-20T05:36:56;4.63;;;2.97;;
29812;SDS011;16707;48.106;11.548;2022-11-20T05:39:29;3.85;;;2.92;;
29812;SDS011;16707;48.106;11.548;2022-11-20T05:42:10;3.13;;;2.15;;
29812;SDS011;16707;48.106;11.548;2022-11-20T05:45:07;3.35;;;2.60;;
29812;SDS011;16707;48.106;11.548;2022-11-20T05:47:35;4.40;;;3.00;;
29812;SDS011;16707;48.106;11.548;2022-11-20T05:50:02;4.90;;;2.58;;
29812;SDS011;16707;48.106;11.548;2022-11-20T05:52:29;4.60;;;2.70;;
29812;SDS011;16707;48.106;11.548;2022-11-20T05:54:59;3.75;;;2.63;;
29812;SDS011;16707;48.106;11.548;2022-11-20T05:57:33;3.75;;;2.60;;
29812;SDS011;16707;48.106;11.548;2022-11-20T06:00:00;3.25;;;2.40;;
29812;SDS011;16707;48.106;11.548;2022-11-20T06:02:28;2.78;;;2.13;;
29812;SDS011;16707;48.106;11.548;2022-11-20T06:05:01;2.42;;;2.00;;
29812;SDS011;16707;48.106;11.548;2022-11-20T06:07:34;2.97;;;2.40;;
29812;SDS011;16707;48.106;11.548;2022-11-20T06:10:01;3.28;;;2.00;;
29812;SDS011;16707;48.106;11.548;2022-11-20T06:12:30;3.72;;;2.30;;
29812;SDS011;16707;48.106;11.548;2022-11-20T06:14:58;3.75;;;2.53;;
29812;SDS011;16707;48.106;11.548;2022-11-20T06:17:28;6.78;;;2.67;;
29812;SDS011;16707;48.106;11.548;2022-11-20T06:19:56;3.35;;;2.30;;
29812;SDS011;16707;48.106;11.548;2022-11-20T06:22:26;2.97;;;2.38;;
29812;SDS011;16707;48.106;11.548;2022-11-20T06:24:54;3.97;;;2.10;;
29812;SDS011;16707;48.106;11.548;2022-11-20T06:27:21;3.22;;;2.45;;
29812;SDS011;16707;48.106;11.548;2022-11-20T06:29:47;2.47;;;2.05;;
29812;SDS011;16707;48.106;11.548;2022-11-20T06:32:14;3.13;;;2.45;;
29812;SDS011;16707;48.106;11.548;2022-11-20T06:34:43;4.85;;;2.88;;
29812;SDS011;16707;48.106;11.548;2022-11-20T06:37:09;2.92;;;1.95;;
29812;SDS011;16707;48.106;11.548;2022-11-20T06:39:39;2.90;;;1.98;;
29812;SDS011;16707;48.106;11.548;2022-11-20T06:42:09;3.08;;;2.15;;
29812;SDS011;16707;48.106;11.548;2022-11-20T06:44:35;2.13;;;1.80;;
29812;SDS011;16707;48.106;11.548;2022-11-20T06:47:11;2.55;;;1.80;;
29812;SDS011;16707;48.106;11.548;2022-11-20T06:49:37;3.17;;;1.85;;
29812;SDS011;16707;48.106;11.548;2022-11-20T06:52:06;2.00;;;1.58;;
29812;SDS011;16707;48.106;11.548;2022-11-20T06:54:33;2.63;;;2.00;;
29812;SDS011;16707;48.106;11.548;2022-11-20T06:57:06;2.50;;;1.88;;
29812;SDS011;16707;48.106;11.548;2022-11-20T06:59:34;1.85;;;1.50;;
29812;SDS011;16707;48.106;11.548;2022-11-20T07:02:03;2.17;;;1.63;;
29812;SDS011;16707;48.106;11.548;2022-11-20T07:04:30;2.20;;;1.80;;
29812;SDS011;16707;48.106;11.548;2022-11-20T07:07:00;7.57;;;2.80;;
29812;SDS011;16707;48.106;11.548;2022-11-20T07:09:29;7.43;;;2.90;;
29812;SDS011;16707;48.106;11.548;2022-11-20T07:11:56;2.20;;;1.70;;
29812;SDS011;16707;48.106;11.548;2022-11-20T07:14:26;2.58;;;1.90;;
29812;SDS011;16707;48.106;11.548;2022-11-20T07:16:55;2.05;;;1.83;;
29812;SDS011;16707;48.106;11.548;2022-11-20T07:19:25;3.55;;;1.90;;
29812;SDS011;16707;48.106;11.548;2022-11-20T07:21:55;4.63;;;2.83;;
29812;SDS011;16707;48.106;11.548;2022-11-20T07:24:22;3.42;;;2.33;;
29812;SDS011;16707;48.106;11.548;2022-11-20T07:26:50;3.67;;;2.72;;
29812;SDS011;16707;48.106;11.548;2022-11-20T07:29:20;4.25;;;2.75;;
29812;SDS011;16707;48.106;11.548;2022-11-20T07:31:50;4.15;;;2.67;;
29812;SDS011;16707;48.106;11.548;2022-11-20T07:34:16;4.38;;;2.80;;
29812;SDS011;16707;48.106;11.548;2022-11-20T07:36:44;3.45;;;2.40;;
29812;SDS011;16707;48.106;11.548;2022-11-20T07:39:15;3.70;;;2.30;;
29812;SDS011;16707;48.106;11.548;2022-11-20T07:41:41;3.17;;;2.50;;
29812;SDS011;16707;48.106;11.548;2022-11-20T07:44:10;3.42;;;2.40;;
29812;SDS011;16707;48.106;11.548;2022-11-20T07:46:42;3.58;;;2.50;;
29812;SDS011;16707;48.106;11.548;2022-11-20T07:49:12;3.83;;;2.53;;
29812;SDS011;16707;48.106;11.548;2022-11-20T07:51:39;2.53;;;2.30;;
29812;SDS011;16707;48.106;11.548;2022-11-20T07:54:09;2.55;;;2.00;;
29812;SDS011;16707;48.106;11.548;2022-11-20T07:56:36;2.75;;;2.50;;
29812;SDS011;16707;48.106;11.548;2022-11-20T07:59:03;2.75;;;2.00;;
29812;SDS011;16707;48.106;11.548;2022-11-20T08:01:37;2.58;;;2.08;;
29812;SDS011;16707;48.106;11.548;2022-11-20T08:04:07;2.85;;;2.40;;
29812;SDS011;16707;48.106;11.548;2022-11-20T08:06:36;3.30;;;2.30;;
29812;SDS011;16707;48.106;11.548;2022-11-20T08:09:03;2.75;;;2.00;;
29812;SDS011;16707;48.106;11.548;2022-11-20T08:11:32;2.00;;;1.80;;
29812;SDS011;16707;48.106;11.548;2022-11-20T08:14:16;3.40;;;2.05;;
29812;SDS011;16707;48.106;11.548;2022-11-20T08:16:48;4.40;;;2.95;;
29812;SDS011;16707;48.106;11.548;2022-11-20T08:19:17;2.80;;;2.13;;
29812;SDS011;16707;48.106;11.548;2022-11-20T08:21:44;3.28;;;2.25;;
29812;SDS011;16707;48.106;11.548;2022-11-20T08:24:16;3.33;;;2.50;;
29812;SDS011;16707;48.106;11.548;2022-11-20T08:26:43;2.45;;;1.95;;
29812;SDS011;16707;48.106;11.548;2022-11-20T08:29:10;2.30;;;1.92;;
29812;SDS011;16707;48.106;11.548;2022-11-20T08:31:42;2.75;;;2.03;;
29812;SDS011;16707;48.106;11.548;2022-11-20T08:34:10;2.75;;;1.90;;
29812;SDS011;16707;48.106;11.548;2022-11-20T08:36:37;4.15;;;2.40;;
29812;SDS011;16707;48.106;11.548;2022-11-20T08:39:04;2.83;;;1.90;;
29812;SDS011;16707;48.106;11.548;2022-11-20T08:41:31;5.22;;;2.38;;
29812;SDS011;16707;48.106;11.548;2022-11-20T08:44:02;2.83;;;2.38;;
29812;SDS011;16707;48.106;11.548;2022-11-20T08:46:33;2.33;;;1.90;;
29812;SDS011;16707;48.106;11.548;2022-11-20T08:49:06;2.65;;;2.00;;
29812;SDS011;16707;48.106;11.548;2022-11-20T08:51:36;2.42;;;2.00;;
29812;SDS011;16707;48.106;11.548;2022-11-20T08:54:04;2.15;;;1.60;;
29812;SDS011;16707;48.106;11.548;2022-11-20T08:56:32;2.50;;;1.63;;
29812;SDS011;16707;48.106;11.548;2022-11-20T08:58:59;2.47;;;1.77;;
29812;SDS011;16707;48.106;11.548;2022-11-20T09:01:29;2.65;;;1.48;;
29812;SDS011;16707;48.106;11.548;2022-11-20T09:03:58;2.45;;;1.70;;
29812;SDS011;16707;48.106;11.548;2022-11-20T09:06:27;1.95;;;1.70;;
29812;SDS011;16707;48.106;11.548;2022-11-20T09:08:55;4.00;;;1.92;;
29812;SDS011;16707;48.106;11.548;2022-11-20T09:11:23;2.03;;;1.65;;
29812;SDS011;16707;48.106;11.548;2022-11-20T09:13:49;2.50;;;1.90;;
29812;SDS011;16707;48.106;11.548;2022-11-20T09:16:16;2.47;;;1.63;;
29812;SDS011;16707;48.106;11.548;2022-11-20T09:18:46;2.08;;;1.85;;
29812;SDS011;16707;48.106;11.548;2022-11-20T09:21:16;1.58;;;1.40;;
29812;SDS011;16707;48.106;11.548;2022-11-20T09:23:45;2.58;;;1.60;;
29812;SDS011;16707;48.106;11.548;2022-11-20T09:26:15;1.75;;;1.33;;
29812;SDS011;16707;48.106;11.548;2022-11-20T09:28:42;2.58;;;1.73;;
29812;SDS011;16707;48.106;11.548;2022-11-20T09:31:09;3.25;;;1.50;;
29812;SDS011;16707;48.106;11.548;2022-11-20T09:33:48;2.03;;;1.25;;
29812;SDS011;16707;48.106;11.548;2022-11-20T09:36:18;2.03;;;1.27;;
29812;SDS011;16707;48.106;11.548;2022-11-20T09:38:45;2.10;;;1.50;;
29812;SDS011;16707;48.106;11.548;2022-11-20T09:41:31;1.92;;;1.63;;
29812;SDS011;16707;48.106;11.548;2022-11-20T09:44:20;1.67;;;1.38;;
29812;SDS011;16707;48.106;11.548;2022-11-20T09:47:07;2.15;;;1.45;;
29812;SDS011;16707;48.106;11.548;2022-11-20T09:49:46;1.75;;;1.30;;
29812;SDS011;16707;48.106;11.548;2022-11-20T09:52:28;1.80;;;1.30;;
29812;SDS011;16707;48.106;11.548;2022-11-20T09:55:02;1.20;;;1.10;;
29812;SDS011;16707;48.106;11.548;2022-11-20T09:57:35;1.55;;;1.05;;
29812;SDS011;16707;48.106;11.548;2022-11-20T10:00:05;2.10;;;1.45;;
29812;SDS011;16707;48.106;11.548;2022-11-20T10:02:37;1.98;;;1.58;;
29812;SDS011;16707;48.106;11.548;2022-11-20T10:05:10;1.70;;;1.25;;
29812;SDS011;16707;48.106;11.548;2022-11-20T10:07:44;1.50;;;1.23;;
29812;SDS011;16707;48.106;11.548;2022-11-20T10:10:26;1.58;;;1.20;;
29812;SDS011;16707;48.106;11.548;2022-11-20T10:13:09;2.92;;;1.20;;
29812;SDS011;16707;48.106;11.548;2022-11-20T10:15:50;1.65;;;1.10;;
29812;SDS011;16707;48.106;11.548;2022-11-20T10:18:31;1.40;;;1.30;;
29812;SDS011;16707;48.106;11.548;2022-11-20T10:21:12;1.50;;;1.20;;
29812;SDS011;16707;48.106;11.548;2022-11-20T10:26:54;1.23;;;1.13;;
29812;SDS011;16707;48.106;11.548;2022-11-20T10:29:41;1.40;;;1.10;;
29812;SDS011;16707;48.106;11.548;2022-11-20T10:32:14;1.67;;;1.30;;
29812;SDS011;16707;48.106;11.548;2022-11-20T10:34:44;1.25;;;1.10;;
29812;SDS011;16707;48.106;11.548;2022-11-20T10:37:24;2.35;;;1.42;;
29812;SDS011;16707;48.106;11.548;2022-11-20T10:39:54;2.88;;;1.20;;
29812;SDS011;16707;48.106;11.548;2022-11-20T10:42:29;1.63;;;1.35;;
29812;SDS011;16707;48.106;11.548;2022-11-20T10:45:13;1.70;;;1.20;;
29812;SDS011;16707;48.106;11.548;2022-11-20T10:48:00;2.17;;;1.23;;
29812;SDS011;16707;48.106;11.548;2022-11-20T10:50:44;1.50;;;1.10;;
29812;SDS011;16707;48.106;11.548;2022-11-20T10:53:30;1.45;;;1.13;;
29812;SDS011;16707;48.106;11.548;2022-11-20T10:56:14;2.58;;;1.48;;
29812;SDS011;16707;48.106;11.548;2022-11-20T10:58:58;1.40;;;1.17;;
29812;SDS011;16707;48.106;11.548;2022-11-20T11:02:18;1.85;;;1.25;;
29812;SDS011;16707;48.106;11.548;2022-11-20T11:04:50;1.35;;;1.25;;
29812;SDS011;16707;48.106;11.548;2022-11-20T11:07:21;1.42;;;1.20;;
29812;SDS011;16707;48.106;11.548;2022-11-20T11:09:50;1.48;;;1.17;;
29812;SDS011;16707;48.106;11.548;2022-11-20T11:12:23;2.08;;;1.48;;
29812;SDS011;16707;48.106;11.548;2022-11-20T11:14:54;1.38;;;0.90;;
29812;SDS011;16707;48.106;11.548;2022-11-20T11:17:29;2.17;;;1.40;;
29812;SDS011;16707;48.106;11.548;2022-11-20T11:20:02;2.13;;;1.10;;
29812;SDS011;16707;48.106;11.548;2022-11-20T11:22:32;2.20;;;1.25;;
29812;SDS011;16707;48.106;11.548;2022-11-20T11:25:17;1.33;;;1.20;;
29812;SDS011;16707;48.106;11.548;2022-11-20T11:27:51;1.58;;;1.25;;
29812;SDS011;16707;48.106;11.548;2022-11-20T11:30:22;2.22;;;1.15;;
29812;SDS011;16707;48.106;11.548;2022-11-20T11:33:01;2.20;;;1.20;;
29812;SDS011;16707;48.106;11.548;2022-11-20T11:35:32;1.42;;;1.10;;
29812;SDS011;16707;48.106;11.548;2022-11-20T11:38:11;1.38;;;1.08;;
29812;SDS011;16707;48.106;11.548;2022-11-20T11:40:42;1.60;;;1.33;;
29812;SDS011;16707;48.106;11.548;2022-11-20T11:43:16;2.75;;;1.30;;
29812;SDS011;16707;48.106;11.548;2022-11-20T11:46:05;1.95;;;1.30;;
29812;SDS011;16707;48.106;11.548;2022-11-20T11:48:56;1.33;;;1.10;;
29812;SDS011;16707;48.106;11.548;2022-11-20T11:51:25;2.08;;;1.60;;
29812;SDS011;16707;48.106;11.548;2022-11-20T11:53:56;1.50;;;1.25;;
29812;SDS011;16707;48.106;11.548;2022-11-20T11:56:26;1.65;;;1.40;;
29812;SDS011;16707;48.106;11.548;2022-11-20T11:58:54;1.63;;;1.52;;
29812;SDS011;16707;48.106;11.548;2022-11-20T12:01:31;2.00;;;1.20;;
29812;SDS011;16707;48.106;11.548;2022-11-20T12:04:09;2.97;;;1.30;;
29812;SDS011;16707;48.106;11.548;2022-11-20T12:06:47;1.80;;;1.42;;
29812;SDS011;16707;48.106;11.548;2022-11-20T12:09:20;1.85;;;1.23;;
29812;SDS011;16707;48.106;11.548;2022-11-20T12:11:58;1.70;;;1.60;;
29812;SDS011;16707;48.106;11.548;2022-11-20T12:14:35;1.80;;;1.40;;
29812;SDS011;16707;48.106;11.548;2022-11-20T12:17:07;1.52;;;1.40;;
29812;SDS011;16707;48.106;11.548;2022-11-20T12:19:38;1.75;;;1.10;;
29812;SDS011;16707;48.106;11.548;2022-11-20T12:22:06;2.58;;;1.85;;
29812;SDS011;16707;48.106;11.548;2022-11-20T12:24:44;1.63;;;1.48;;
29812;SDS011;16707;48.106;11.548;2022-11-20T12:27:25;2.78;;;1.80;;
29812;SDS011;16707;48.106;11.548;2022-11-20T12:30:16;2.45;;;1.60;;
29812;SDS011;16707;48.106;11.548;2022-11-20T12:33:03;1.50;;;1.40;;
29812;SDS011;16707;48.106;11.548;2022-11-20T12:35:44;2.15;;;1.23;;
29812;SDS011;16707;48.106;11.548;2022-11-20T12:38:27;2.42;;;1.50;;
29812;SDS011;16707;48.106;11.548;2022-11-20T12:41:11;2.15;;;1.30;;
29812;SDS011;16707;48.106;11.548;2022-11-20T12:44:08;1.63;;;1.38;;
29812;SDS011;16707;48.106;11.548;2022-11-20T12:47:07;3.08;;;1.45;;
29812;SDS011;16707;48.106;11.548;2022-11-20T12:49:43;2.25;;;1.35;;
29812;SDS011;16707;48.106;11.548;2022-11-20T12:52:26;2.63;;;1.77;;
29812;SDS011;16707;48.106;11.548;2022-11-20T12:55:23;2.50;;;1.63;;
29812;SDS011;16707;48.106;11.548;2022-11-20T12:58:05;2.50;;;1.73;;
29812;SDS011;16707;48.106;11.548;2022-11-20T13:00:38;3.00;;;2.30;;
29812;SDS011;16707;48.106;11.548;2022-11-20T13:03:30;2.35;;;1.60;;
29812;SDS011;16707;48.106;11.548;2022-11-20T13:06:05;1.48;;;1.20;;
29812;SDS011;16707;48.106;11.548;2022-11-20T13:08:41;2.38;;;1.70;;
29812;SDS011;16707;48.106;11.548;2022-11-20T13:11:21;2.55;;;1.80;;
29812;SDS011;16707;48.106;11.548;2022-11-20T13:14:00;1.90;;;1.42;;
29812;SDS011;16707;48.106;11.548;2022-11-20T13:16:41;3.25;;;1.73;;
29812;SDS011;16707;48.106;11.548;2022-11-20T13:19:16;2.38;;;1.70;;
29812;SDS011;16707;48.106;11.548;2022-11-20T13:21:44;2.13;;;1.60;;
29812;SDS011;16707;48.106;11.548;2022-11-20T13:24:23;1.90;;;1.70;;
29812;SDS011;16707;48.106;11.548;2022-11-20T13:29:47;2.28;;;1.98;;
29812;SDS011;16707;48.106;11.548;2022-11-20T13:32:25;2.53;;;1.77;;
29812;SDS011;16707;48.106;11.548;2022-11-20T13:34:57;2.13;;;1.75;;
29812;SDS011;16707;48.106;11.548;2022-11-20T13:37:27;2.17;;;1.95;;
29812;SDS011;16707;48.106;11.548;2022-11-20T13:40:19;2.80;;;1.90;;
29812;SDS011;16707;48.106;11.548;2022-11-20T13:42:56;3.63;;;2.42;;
29812;SDS011;16707;48.106;11.548;2022-11-20T13:45:38;4.18;;;1.85;;
29812;SDS011;16707;48.106;11.548;2022-11-20T13:48:23;2.25;;;1.80;;
29812;SDS011;16707;48.106;11.548;2022-11-20T13:50:59;2.45;;;1.60;;
29812;SDS011;16707;48.106;11.548;2022-11-20T13:56:46;4.45;;;2.03;;
29812;SDS011;16707;48.106;11.548;2022-11-20T13:59:26;2.38;;;1.50;;
29812;SDS011;16707;48.106;11.548;2022-11-20T14:02:09;2.58;;;1.60;;
29812;SDS011;16707;48.106;11.548;2022-11-20T14:04:42;2.25;;;1.73;;
29812;SDS011;16707;48.106;11.548;2022-11-20T14:07:14;2.60;;;1.83;;
29812;SDS011;16707;48.106;11.548;2022-11-20T14:09:50;2.03;;;1.38;;
29812;SDS011;16707;48.106;11.548;2022-11-20T14:12:21;2.47;;;1.45;;
29812;SDS011;16707;48.106;11.548;2022-11-20T14:14:51;2.30;;;1.45;;
29812;SDS011;16707;48.106;11.548;2022-11-20T14:17:23;2.08;;;1.70;;
29812;SDS011;16707;48.106;11.548;2022-11-20T14:19:55;5.50;;;1.83;;
29812;SDS011;16707;48.106;11.548;2022-11-20T14:22:26;2.63;;;1.60;;
29812;SDS011;16707;48.106;11.548;2022-11-20T14:25:04;1.75;;;1.65;;
29812;SDS011;16707;48.106;11.548;2022-11-20T14:27:47;2.05;;;1.50;;
29812;SDS011;16707;48.106;11.548;2022-11-20T14:30:21;2.17;;;1.40;;
29812;SDS011;16707;48.106;11.548;2022-11-20T14:32:52;2.17;;;1.60;;
29812;SDS011;16707;48.106;11.548;2022-11-20T14:35:27;2.17;;;1.38;;
29812;SDS011;16707;48.106;11.548;2022-11-20T14:37:56;2.58;;;1.60;;
29812;SDS011;16707;48.106;11.548;2022-11-20T14:40:26;2.90;;;1.70;;
29812;SDS011;16707;48.106;11.548;2022-11-20T14:42:57;1.58;;;1.30;;
29812;SDS011;16707;48.106;11.548;2022-11-20T14:45:26;2.60;;;1.48;;
29812;SDS011;16707;48.106;11.548;2022-11-20T14:47:59;1.23;;;1.13;;
29812;SDS011;16707;48.106;11.548;2022-11-20T14:50:27;2.00;;;1.30;;
29812;SDS011;16707;48.106;11.548;2022-11-20T14:52:55;1.13;;;0.98;;
29812;SDS011;16707;48.106;11.548;2022-11-20T14:55:28;1.00;;;0.98;;
29812;SDS011;16707;48.106;11.548;2022-11-20T14:58:00;1.35;;;1.00;;
29812;SDS011;16707;48.106;11.548;2022-11-20T15:00:29;0.93;;;0.90;;
29812;SDS011;16707;48.106;11.548;2022-11-20T15:02:58;1.13;;;0.73;;
29812;SDS011;16707;48.106;11.548;2022-11-20T15:05:25;0.80;;;0.80;;
29812;SDS011;16707;48.106;11.548;2022-11-20T15:08:12;1.45;;;1.10;;
29812;SDS011;16707;48.106;11.548;2022-11-20T15:10:47;0.82;;;0.80;;
29812;SDS011;16707;48.106;11.548;2022-11-20T15:13:22;2.03;;;0.85;;
29812;SDS011;16707;48.106;11.548;2022-11-20T15:15:53;1.02;;;0.77;;
29812;SDS011;16707;48.106;11.548;2022-11-20T15:18:26;1.30;;;0.77;;
29812;SDS011;16707;48.106;11.548;2022-11-20T15:20:55;1.42;;;1.10;;
29812;SDS011;16707;48.106;11.548;2022-11-20T15:23:25;1.13;;;0.90;;
29812;SDS011;16707;48.106;11.548;2022-11-20T15:25:56;0.75;;;0.60;;